sensor_id;sensor_type;location;lat;lon;timestamp;temperature;humidity
24162;DHT22;12318;51.262;7.066;2023-03-31T00:01:28;10.50;99.90
24162;DHT22;12318;51.262;7.066;2023-03-31T00:03:54;10.50;99.90
24162;DHT22;12318;51.262;7.066;2023-03-31T00:06:33;10.40;99.90
24162;DHT22;12318;51.262;7.066;2023-03-31T00:09:10;10.40;99.90
24162;DHT22;12318;51.262;7.066;2023-03-31T00:11:36;10.40;99.90
24162;DHT22;12318;51.262;7.066;2023-03-31T00:14:03;10.40;99.90
24162;DHT22;12318;51.262;7.066;2023-03-31T00:16:32;10.40;99.90
24162;DHT22;12318;51.262;7.066;2023-03-31T00:18:58;10.40;99.90
24162;DHT22;12318;51.262;7.066;2023-03-31T00:21:27;10.50;99.90
24162;DHT22;12318;51.262;7.066;2023-03-31T00:24:04;10.50;99.90
24162;DHT22;12318;51.262;7.066;2023-03-31T00:26:30;10.50;99.90
24162;DHT22;12318;51.262;7.066;2023-03-31T00:28:57;10.60;99.90
24162;DHT22;12318;51.262;7.066;2023-03-31T00:31:24;10.60;99.90
24162;DHT22;12318;51.262;7.066;2023-03-31T00:33:50;10.60;99.90
24162;DHT22;12318;51.262;7.066;2023-03-31T00:36:16;10.70;99.90
24162;DHT22;12318;51.262;7.066;2023-03-31T00:38:47;10.70;99.90
24162;DHT22;12318;51.262;7.066;2023-03-31T00:41:13;10.70;99.90
24162;DHT22;12318;51.262;7.066;2023-03-31T00:43:40;10.50;99.90
24162;DHT22;12318;51.262;7.066;2023-03-31T00:46:14;10.40;99.90
24162;DHT22;12318;51.262;7.066;2023-03-31T00:48:54;10.30;99.90
24162;DHT22;12318;51.262;7.066;2023-03-31T00:51:30;10.30;99.90
24162;DHT22;12318;51.262;7.066;2023-03-31T00:54:00;10.30;99.90
24162;DHT22;12318;51.262;7.066;2023-03-31T00:56:33;10.30;99.90
24162;DHT22;12318;51.262;7.066;2023-03-31T00:59:02;10.20;99.90
24162;DHT22;12318;51.262;7.066;2023-03-31T01:01:29;10.20;99.90
24162;DHT22;12318;51.262;7.066;2023-03-31T01:03:56;10.20;99.90
24162;DHT22;12318;51.262;7.066;2023-03-31T01:06:23;10.10;99.90
24162;DHT22;12318;51.262;7.066;2023-03-31T01:08:50;10.20;99.90
24162;DHT22;12318;51.262;7.066;2023-03-31T01:11:22;10.10;99.90
24162;DHT22;12318;51.262;7.066;2023-03-31T01:13:50;10.10;99.90
24162;DHT22;12318;51.262;7.066;2023-03-31T01:16:17;10.10;99.90
24162;DHT22;12318;51.262;7.066;2023-03-31T01:18:44;10.20;99.90
24162;DHT22;12318;51.262;7.066;2023-03-31T01:32:06;10.10;99.90
24162;DHT22;12318;51.262;7.066;2023-03-31T01:34:55;10.10;99.90
24162;DHT22;12318;51.262;7.066;2023-03-31T01:43:51;10.20;99.90
24162;DHT22;12318;51.262;7.066;2023-03-31T01:46:54;10.20;99.90
24162;DHT22;12318;51.262;7.066;2023-03-31T01:49:42;10.30;99.90
24162;DHT22;12318;51.262;7.066;2023-03-31T01:55:31;10.20;99.90
24162;DHT22;12318;51.262;7.066;2023-03-31T01:58:05;10.20;99.90
24162;DHT22;12318;51.262;7.066;2023-03-31T02:00:35;10.30;99.90
24162;DHT22;12318;51.262;7.066;2023-03-31T02:03:32;10.30;99.90
24162;DHT22;12318;51.262;7.066;2023-03-31T02:06:02;10.30;99.90
24162;DHT22;12318;51.262;7.066;2023-03-31T02:08:37;10.40;99.90
24162;DHT22;12318;51.262;7.066;2023-03-31T02:11:10;10.40;99.90
24162;DHT22;12318;51.262;7.066;2023-03-31T02:13:52;10.40;99.90
24162;DHT22;12318;51.262;7.066;2023-03-31T02:16:31;10.40;99.90
24162;DHT22;12318;51.262;7.066;2023-03-31T02:19:03;10.50;99.90
24162;DHT22;12318;51.262;7.066;2023-03-31T02:21:33;10.40;99.90
24162;DHT22;12318;51.262;7.066;2023-03-31T02:24:05;10.50;99.90
24162;DHT22;12318;51.262;7.066;2023-03-31T02:26:36;10.40;99.90
24162;DHT22;12318;51.262;7.066;2023-03-31T02:29:04;10.50;99.90
24162;DHT22;12318;51.262;7.066;2023-03-31T02:34:13;10.50;99.90
24162;DHT22;12318;51.262;7.066;2023-03-31T02:36:40;10.50;99.90
24162;DHT22;12318;51.262;7.066;2023-03-31T02:39:17;10.40;99.90
24162;DHT22;12318;51.262;7.066;2023-03-31T02:41:44;10.40;99.90
24162;DHT22;12318;51.262;7.066;2023-03-31T02:44:10;10.40;99.90
24162;DHT22;12318;51.262;7.066;2023-03-31T02:46:37;10.40;99.90
24162;DHT22;12318;51.262;7.066;2023-03-31T02:49:05;10.30;99.90
24162;DHT22;12318;51.262;7.066;2023-03-31T03:06:37;10.20;99.90
24162;DHT22;12318;51.262;7.066;2023-03-31T03:09:35;10.30;99.90
24162;DHT22;12318;51.262;7.066;2023-03-31T03:12:16;10.30;99.90
24162;DHT22;12318;51.262;7.066;2023-03-31T03:17:39;10.30;99.90
24162;DHT22;12318;51.262;7.066;2023-03-31T03:20:05;10.30;99.90
24162;DHT22;12318;51.262;7.066;2023-03-31T03:22:35;10.20;99.90
24162;DHT22;12318;51.262;7.066;2023-03-31T03:25:03;10.20;99.90
24162;DHT22;12318;51.262;7.066;2023-03-31T03:27:29;10.20;99.90
24162;DHT22;12318;51.262;7.066;2023-03-31T03:29:54;10.20;99.90
24162;DHT22;12318;51.262;7.066;2023-03-31T03:32:21;10.20;99.90
24162;DHT22;12318;51.262;7.066;2023-03-31T03:34:47;10.30;99.90
24162;DHT22;12318;51.262;7.066;2023-03-31T03:37:12;10.20;99.90
24162;DHT22;12318;51.262;7.066;2023-03-31T03:39:38;10.20;99.90
24162;DHT22;12318;51.262;7.066;2023-03-31T03:42:05;10.20;99.90
24162;DHT22;12318;51.262;7.066;2023-03-31T03:44:33;10.20;99.90
24162;DHT22;12318;51.262;7.066;2023-03-31T03:46:59;10.20;99.90
24162;DHT22;12318;51.262;7.066;2023-03-31T03:49:24;10.20;99.90
24162;DHT22;12318;51.262;7.066;2023-03-31T03:51:50;10.20;99.90
24162;DHT22;12318;51.262;7.066;2023-03-31T03:54:16;10.20;99.90
24162;DHT22;12318;51.262;7.066;2023-03-31T03:56:42;10.20;99.90
24162;DHT22;12318;51.262;7.066;2023-03-31T03:59:07;10.30;99.90
24162;DHT22;12318;51.262;7.066;2023-03-31T04:01:33;10.30;99.90
24162;DHT22;12318;51.262;7.066;2023-03-31T04:04:00;10.30;99.90
24162;DHT22;12318;51.262;7.066;2023-03-31T04:06:26;10.30;99.90
24162;DHT22;12318;51.262;7.066;2023-03-31T04:08:51;10.20;99.90
24162;DHT22;12318;51.262;7.066;2023-03-31T04:11:18;10.20;99.90
24162;DHT22;12318;51.262;7.066;2023-03-31T04:13:44;10.20;99.90
24162;DHT22;12318;51.262;7.066;2023-03-31T04:16:11;10.30;99.90
24162;DHT22;12318;51.262;7.066;2023-03-31T04:18:36;10.20;99.90
24162;DHT22;12318;51.262;7.066;2023-03-31T04:21:11;10.20;99.90
24162;DHT22;12318;51.262;7.066;2023-03-31T04:23:40;10.20;99.90
24162;DHT22;12318;51.262;7.066;2023-03-31T04:26:17;10.20;99.90
24162;DHT22;12318;51.262;7.066;2023-03-31T04:28:43;10.20;99.90
24162;DHT22;12318;51.262;7.066;2023-03-31T04:31:12;10.20;99.90
24162;DHT22;12318;51.262;7.066;2023-03-31T04:33:54;10.20;99.90
24162;DHT22;12318;51.262;7.066;2023-03-31T04:36:21;10.20;99.90
24162;DHT22;12318;51.262;7.066;2023-03-31T04:38:48;10.20;99.90
24162;DHT22;12318;51.262;7.066;2023-03-31T04:41:27;10.10;99.90
24162;DHT22;12318;51.262;7.066;2023-03-31T04:43:53;10.20;99.90
24162;DHT22;12318;51.262;7.066;2023-03-31T04:46:19;10.20;99.90
24162;DHT22;12318;51.262;7.066;2023-03-31T04:48:44;10.20;99.90
24162;DHT22;12318;51.262;7.066;2023-03-31T04:51:11;10.10;99.90
24162;DHT22;12318;51.262;7.066;2023-03-31T04:53:40;10.10;99.90
24162;DHT22;12318;51.262;7.066;2023-03-31T04:56:06;10.00;99.90
24162;DHT22;12318;51.262;7.066;2023-03-31T04:58:32;10.00;99.90
24162;DHT22;12318;51.262;7.066;2023-03-31T05:01:01;10.00;99.90
24162;DHT22;12318;51.262;7.066;2023-03-31T05:03:27;10.00;99.90
24162;DHT22;12318;51.262;7.066;2023-03-31T05:05:52;9.90;99.90
24162;DHT22;12318;51.262;7.066;2023-03-31T05:08:26;9.90;99.90
24162;DHT22;12318;51.262;7.066;2023-03-31T05:10:54;9.90;99.90
24162;DHT22;12318;51.262;7.066;2023-03-31T05:13:20;10.00;99.90
24162;DHT22;12318;51.262;7.066;2023-03-31T05:15:46;9.90;99.90
24162;DHT22;12318;51.262;7.066;2023-03-31T05:18:15;9.90;99.90
24162;DHT22;12318;51.262;7.066;2023-03-31T05:20:41;9.90;99.90
24162;DHT22;12318;51.262;7.066;2023-03-31T05:23:06;9.90;99.90
24162;DHT22;12318;51.262;7.066;2023-03-31T05:25:32;9.90;99.90
24162;DHT22;12318;51.262;7.066;2023-03-31T05:27:59;9.80;99.90
24162;DHT22;12318;51.262;7.066;2023-03-31T05:30:26;9.80;99.90
24162;DHT22;12318;51.262;7.066;2023-03-31T05:32:52;9.80;99.90
24162;DHT22;12318;51.262;7.066;2023-03-31T05:35:18;9.80;99.90
24162;DHT22;12318;51.262;7.066;2023-03-31T05:37:44;9.70;99.90
24162;DHT22;12318;51.262;7.066;2023-03-31T05:40:10;9.80;99.90
24162;DHT22;12318;51.262;7.066;2023-03-31T05:42:37;9.80;99.90
24162;DHT22;12318;51.262;7.066;2023-03-31T05:45:03;9.80;99.90
24162;DHT22;12318;51.262;7.066;2023-03-31T05:47:29;9.80;99.90
24162;DHT22;12318;51.262;7.066;2023-03-31T05:49:55;9.80;99.90
24162;DHT22;12318;51.262;7.066;2023-03-31T05:52:20;9.80;99.90
24162;DHT22;12318;51.262;7.066;2023-03-31T05:54:46;9.80;99.90
24162;DHT22;12318;51.262;7.066;2023-03-31T05:57:12;9.80;99.90
24162;DHT22;12318;51.262;7.066;2023-03-31T05:59:38;9.80;99.90
24162;DHT22;12318;51.262;7.066;2023-03-31T06:02:05;9.70;99.90
24162;DHT22;12318;51.262;7.066;2023-03-31T06:04:31;9.80;99.90
24162;DHT22;12318;51.262;7.066;2023-03-31T06:06:57;9.80;99.90
24162;DHT22;12318;51.262;7.066;2023-03-31T06:09:24;9.70;99.90
24162;DHT22;12318;51.262;7.066;2023-03-31T06:11:50;9.80;99.90
24162;DHT22;12318;51.262;7.066;2023-03-31T06:14:16;9.70;99.90
24162;DHT22;12318;51.262;7.066;2023-03-31T06:16:42;9.80;99.90
24162;DHT22;12318;51.262;7.066;2023-03-31T06:19:08;9.70;99.90
24162;DHT22;12318;51.262;7.066;2023-03-31T06:21:34;9.70;99.90
24162;DHT22;12318;51.262;7.066;2023-03-31T06:24:00;9.70;99.90
24162;DHT22;12318;51.262;7.066;2023-03-31T06:26:26;9.70;99.90
24162;DHT22;12318;51.262;7.066;2023-03-31T06:28:52;9.70;99.90
24162;DHT22;12318;51.262;7.066;2023-03-31T06:31:23;9.70;99.90
24162;DHT22;12318;51.262;7.066;2023-03-31T06:33:49;9.70;99.90
24162;DHT22;12318;51.262;7.066;2023-03-31T06:36:17;9.70;99.90
24162;DHT22;12318;51.262;7.066;2023-03-31T06:38:43;9.70;99.90
24162;DHT22;12318;51.262;7.066;2023-03-31T06:41:12;9.70;99.90
24162;DHT22;12318;51.262;7.066;2023-03-31T06:43:38;9.70;99.90
24162;DHT22;12318;51.262;7.066;2023-03-31T06:46:04;9.70;99.90
24162;DHT22;12318;51.262;7.066;2023-03-31T06:48:30;9.70;99.90
24162;DHT22;12318;51.262;7.066;2023-03-31T06:51:01;9.70;99.90
24162;DHT22;12318;51.262;7.066;2023-03-31T06:53:28;9.70;99.90
24162;DHT22;12318;51.262;7.066;2023-03-31T06:55:54;9.70;99.90
24162;DHT22;12318;51.262;7.066;2023-03-31T06:58:20;9.70;99.90
24162;DHT22;12318;51.262;7.066;2023-03-31T07:00:47;9.70;99.90
24162;DHT22;12318;51.262;7.066;2023-03-31T07:03:17;9.70;99.90
24162;DHT22;12318;51.262;7.066;2023-03-31T07:05:54;9.60;99.90
24162;DHT22;12318;51.262;7.066;2023-03-31T07:08:21;9.60;99.90
24162;DHT22;12318;51.262;7.066;2023-03-31T07:10:48;9.60;99.90
24162;DHT22;12318;51.262;7.066;2023-03-31T07:13:25;9.60;99.90
24162;DHT22;12318;51.262;7.066;2023-03-31T07:15:52;9.60;99.90
24162;DHT22;12318;51.262;7.066;2023-03-31T07:18:18;9.60;99.90
24162;DHT22;12318;51.262;7.066;2023-03-31T07:20:47;9.60;99.90
24162;DHT22;12318;51.262;7.066;2023-03-31T07:23:14;9.60;99.90
24162;DHT22;12318;51.262;7.066;2023-03-31T07:25:40;9.60;99.90
24162;DHT22;12318;51.262;7.066;2023-03-31T07:28:06;9.50;99.90
24162;DHT22;12318;51.262;7.066;2023-03-31T07:30:32;9.50;99.90
24162;DHT22;12318;51.262;7.066;2023-03-31T07:32:58;9.50;99.90
24162;DHT22;12318;51.262;7.066;2023-03-31T07:35:24;9.50;99.90
24162;DHT22;12318;51.262;7.066;2023-03-31T07:37:51;9.60;99.90
24162;DHT22;12318;51.262;7.066;2023-03-31T07:40:33;9.60;99.90
24162;DHT22;12318;51.262;7.066;2023-03-31T07:42:59;9.60;99.90
24162;DHT22;12318;51.262;7.066;2023-03-31T07:45:26;9.60;99.90
24162;DHT22;12318;51.262;7.066;2023-03-31T07:47:53;9.70;99.90
24162;DHT22;12318;51.262;7.066;2023-03-31T07:50:19;9.80;99.90
24162;DHT22;12318;51.262;7.066;2023-03-31T07:52:56;9.70;99.90
24162;DHT22;12318;51.262;7.066;2023-03-31T07:55:22;9.80;99.90
24162;DHT22;12318;51.262;7.066;2023-03-31T07:57:48;9.80;99.90
24162;DHT22;12318;51.262;7.066;2023-03-31T08:00:19;9.90;99.90
24162;DHT22;12318;51.262;7.066;2023-03-31T08:02:50;9.90;99.90
24162;DHT22;12318;51.262;7.066;2023-03-31T08:05:19;10.00;99.90
24162;DHT22;12318;51.262;7.066;2023-03-31T08:07:49;10.00;99.90
24162;DHT22;12318;51.262;7.066;2023-03-31T08:10:21;10.00;99.90
24162;DHT22;12318;51.262;7.066;2023-03-31T08:13:00;10.10;99.90
24162;DHT22;12318;51.262;7.066;2023-03-31T08:15:26;10.10;99.90
24162;DHT22;12318;51.262;7.066;2023-03-31T08:18:00;10.20;99.90
24162;DHT22;12318;51.262;7.066;2023-03-31T08:20:31;10.10;99.90
24162;DHT22;12318;51.262;7.066;2023-03-31T08:23:00;10.20;99.90
24162;DHT22;12318;51.262;7.066;2023-03-31T08:25:41;10.20;99.90
24162;DHT22;12318;51.262;7.066;2023-03-31T08:28:07;10.20;99.90
24162;DHT22;12318;51.262;7.066;2023-03-31T08:30:39;10.30;99.90
24162;DHT22;12318;51.262;7.066;2023-03-31T08:33:11;10.40;99.90
24162;DHT22;12318;51.262;7.066;2023-03-31T08:35:55;10.40;99.90
24162;DHT22;12318;51.262;7.066;2023-03-31T08:38:23;10.40;99.90
24162;DHT22;12318;51.262;7.066;2023-03-31T08:40:58;10.50;99.90
24162;DHT22;12318;51.262;7.066;2023-03-31T08:43:29;10.40;99.90
24162;DHT22;12318;51.262;7.066;2023-03-31T08:46:01;10.40;99.90
24162;DHT22;12318;51.262;7.066;2023-03-31T08:48:35;10.40;99.90
24162;DHT22;12318;51.262;7.066;2023-03-31T08:51:45;10.40;99.90
24162;DHT22;12318;51.262;7.066;2023-03-31T08:54:39;10.40;99.90
24162;DHT22;12318;51.262;7.066;2023-03-31T08:57:19;10.30;99.90
24162;DHT22;12318;51.262;7.066;2023-03-31T09:03:41;10.30;99.90
24162;DHT22;12318;51.262;7.066;2023-03-31T09:06:36;10.50;99.90
24162;DHT22;12318;51.262;7.066;2023-03-31T09:09:07;10.60;99.90
24162;DHT22;12318;51.262;7.066;2023-03-31T09:12:01;10.70;99.90
24162;DHT22;12318;51.262;7.066;2023-03-31T09:15:41;10.60;99.90
24162;DHT22;12318;51.262;7.066;2023-03-31T09:17:51;10.90;99.90
24162;DHT22;12318;51.262;7.066;2023-03-31T09:20:32;11.20;99.90
24162;DHT22;12318;51.262;7.066;2023-03-31T09:23:45;11.20;99.90
24162;DHT22;12318;51.262;7.066;2023-03-31T09:25:51;11.60;99.90
24162;DHT22;12318;51.262;7.066;2023-03-31T09:28:21;11.80;99.90
24162;DHT22;12318;51.262;7.066;2023-03-31T09:30:48;11.80;99.90
24162;DHT22;12318;51.262;7.066;2023-03-31T09:33:29;11.70;99.90
24162;DHT22;12318;51.262;7.066;2023-03-31T09:36:02;11.70;99.90
24162;DHT22;12318;51.262;7.066;2023-03-31T09:38:31;11.80;99.90
24162;DHT22;12318;51.262;7.066;2023-03-31T09:40:57;11.80;99.90
24162;DHT22;12318;51.262;7.066;2023-03-31T09:43:26;11.70;99.90
24162;DHT22;12318;51.262;7.066;2023-03-31T09:45:53;11.80;99.90
24162;DHT22;12318;51.262;7.066;2023-03-31T09:48:31;11.90;99.90
24162;DHT22;12318;51.262;7.066;2023-03-31T09:51:05;12.00;99.90
24162;DHT22;12318;51.262;7.066;2023-03-31T09:53:51;12.00;99.90
24162;DHT22;12318;51.262;7.066;2023-03-31T09:56:50;12.00;99.90
24162;DHT22;12318;51.262;7.066;2023-03-31T09:59:32;12.20;99.90
24162;DHT22;12318;51.262;7.066;2023-03-31T10:02:05;12.30;99.90
24162;DHT22;12318;51.262;7.066;2023-03-31T10:04:45;12.60;99.90
24162;DHT22;12318;51.262;7.066;2023-03-31T10:07:11;12.70;99.90
24162;DHT22;12318;51.262;7.066;2023-03-31T10:09:38;13.00;99.90
24162;DHT22;12318;51.262;7.066;2023-03-31T10:12:14;13.30;99.90
24162;DHT22;12318;51.262;7.066;2023-03-31T10:14:44;13.50;99.90
24162;DHT22;12318;51.262;7.066;2023-03-31T10:17:22;13.30;99.90
24162;DHT22;12318;51.262;7.066;2023-03-31T10:20:01;12.90;99.90
24162;DHT22;12318;51.262;7.066;2023-03-31T10:22:31;12.30;99.90
24162;DHT22;12318;51.262;7.066;2023-03-31T10:25:16;11.40;99.90
24162;DHT22;12318;51.262;7.066;2023-03-31T10:27:44;11.00;99.90
24162;DHT22;12318;51.262;7.066;2023-03-31T10:30:23;10.70;99.90
24162;DHT22;12318;51.262;7.066;2023-03-31T10:32:50;10.90;99.90
24162;DHT22;12318;51.262;7.066;2023-03-31T10:35:30;11.10;99.90
24162;DHT22;12318;51.262;7.066;2023-03-31T10:38:06;11.70;99.90
24162;DHT22;12318;51.262;7.066;2023-03-31T10:40:35;12.30;99.90
24162;DHT22;12318;51.262;7.066;2023-03-31T10:43:16;12.50;99.90
24162;DHT22;12318;51.262;7.066;2023-03-31T10:50:43;13.20;99.90
24162;DHT22;12318;51.262;7.066;2023-03-31T10:53:17;13.20;99.90
24162;DHT22;12318;51.262;7.066;2023-03-31T11:05:13;13.50;99.90
24162;DHT22;12318;51.262;7.066;2023-03-31T11:13:43;13.60;99.90
24162;DHT22;12318;51.262;7.066;2023-03-31T11:33:45;10.60;99.90
24162;DHT22;12318;51.262;7.066;2023-03-31T11:42:21;11.10;99.90
24162;DHT22;12318;51.262;7.066;2023-03-31T11:44:54;11.10;99.90
24162;DHT22;12318;51.262;7.066;2023-03-31T11:47:25;11.00;99.90
24162;DHT22;12318;51.262;7.066;2023-03-31T11:49:56;11.10;99.90
24162;DHT22;12318;51.262;7.066;2023-03-31T11:52:53;11.20;99.90
24162;DHT22;12318;51.262;7.066;2023-03-31T11:55:22;11.30;99.90
24162;DHT22;12318;51.262;7.066;2023-03-31T12:00:54;11.60;99.90
24162;DHT22;12318;51.262;7.066;2023-03-31T12:06:11;11.30;99.90
24162;DHT22;12318;51.262;7.066;2023-03-31T12:09:09;11.50;99.90
24162;DHT22;12318;51.262;7.066;2023-03-31T12:14:42;11.60;99.90
24162;DHT22;12318;51.262;7.066;2023-03-31T12:17:18;11.70;99.90
24162;DHT22;12318;51.262;7.066;2023-03-31T12:19:46;11.80;99.90
24162;DHT22;12318;51.262;7.066;2023-03-31T12:22:42;11.70;99.90
24162;DHT22;12318;51.262;7.066;2023-03-31T12:25:13;11.70;99.90
24162;DHT22;12318;51.262;7.066;2023-03-31T12:27:42;11.70;99.90
24162;DHT22;12318;51.262;7.066;2023-03-31T12:32:46;11.80;99.90
24162;DHT22;12318;51.262;7.066;2023-03-31T12:35:26;11.80;99.90
24162;DHT22;12318;51.262;7.066;2023-03-31T12:52:06;11.40;99.90
24162;DHT22;12318;51.262;7.066;2023-03-31T12:57:34;11.80;99.90
24162;DHT22;12318;51.262;7.066;2023-03-31T13:02:43;11.80;99.90
24162;DHT22;12318;51.262;7.066;2023-03-31T13:07:59;12.20;99.90
24162;DHT22;12318;51.262;7.066;2023-03-31T13:10:27;12.30;99.90
24162;DHT22;12318;51.262;7.066;2023-03-31T13:15:26;12.20;99.90
24162;DHT22;12318;51.262;7.066;2023-03-31T13:18:02;12.30;99.90
24162;DHT22;12318;51.262;7.066;2023-03-31T13:23:03;12.00;99.90
24162;DHT22;12318;51.262;7.066;2023-03-31T13:27:57;12.10;99.90
24162;DHT22;12318;51.262;7.066;2023-03-31T13:33:09;12.60;99.90
24162;DHT22;12318;51.262;7.066;2023-03-31T13:35:38;12.60;99.90
24162;DHT22;12318;51.262;7.066;2023-03-31T13:40:51;12.90;99.90
24162;DHT22;12318;51.262;7.066;2023-03-31T13:46:45;12.80;99.90
24162;DHT22;12318;51.262;7.066;2023-03-31T13:52:04;12.90;99.90
24162;DHT22;12318;51.262;7.066;2023-03-31T14:00:45;12.90;99.90
24162;DHT22;12318;51.262;7.066;2023-03-31T14:06:53;12.90;99.90
24162;DHT22;12318;51.262;7.066;2023-03-31T14:09:28;12.90;99.90
24162;DHT22;12318;51.262;7.066;2023-03-31T14:11:57;13.10;99.90
24162;DHT22;12318;51.262;7.066;2023-03-31T14:14:23;13.30;99.90
24162;DHT22;12318;51.262;7.066;2023-03-31T14:17:00;13.40;99.90
24162;DHT22;12318;51.262;7.066;2023-03-31T14:25:03;13.20;99.90
24162;DHT22;12318;51.262;7.066;2023-03-31T14:36:10;13.00;99.90
24162;DHT22;12318;51.262;7.066;2023-03-31T14:38:37;13.10;99.90
24162;DHT22;12318;51.262;7.066;2023-03-31T14:41:03;13.10;99.90
24162;DHT22;12318;51.262;7.066;2023-03-31T14:43:35;13.10;99.90
24162;DHT22;12318;51.262;7.066;2023-03-31T14:46:06;13.20;99.90
24162;DHT22;12318;51.262;7.066;2023-03-31T14:48:43;13.20;99.90
24162;DHT22;12318;51.262;7.066;2023-03-31T14:51:12;13.30;99.90
24162;DHT22;12318;51.262;7.066;2023-03-31T14:53:38;13.30;99.90
24162;DHT22;12318;51.262;7.066;2023-03-31T14:56:13;13.10;99.90
24162;DHT22;12318;51.262;7.066;2023-03-31T14:58:47;13.10;99.90
24162;DHT22;12318;51.262;7.066;2023-03-31T15:01:23;13.00;99.90
24162;DHT22;12318;51.262;7.066;2023-03-31T15:03:51;12.90;99.90
24162;DHT22;12318;51.262;7.066;2023-03-31T15:06:18;12.80;99.90
24162;DHT22;12318;51.262;7.066;2023-03-31T15:08:44;12.90;99.90
24162;DHT22;12318;51.262;7.066;2023-03-31T15:11:15;12.80;99.90
24162;DHT22;12318;51.262;7.066;2023-03-31T15:13:44;12.70;99.90
24162;DHT22;12318;51.262;7.066;2023-03-31T15:18:46;12.70;99.90
24162;DHT22;12318;51.262;7.066;2023-03-31T15:21:24;12.70;99.90
24162;DHT22;12318;51.262;7.066;2023-03-31T15:23:52;12.50;99.90
24162;DHT22;12318;51.262;7.066;2023-03-31T15:26:25;12.10;99.90
24162;DHT22;12318;51.262;7.066;2023-03-31T15:28:56;11.80;99.90
24162;DHT22;12318;51.262;7.066;2023-03-31T15:31:23;11.70;99.90
24162;DHT22;12318;51.262;7.066;2023-03-31T15:33:52;11.60;99.90
24162;DHT22;12318;51.262;7.066;2023-03-31T15:36:19;11.40;99.90
24162;DHT22;12318;51.262;7.066;2023-03-31T15:38:46;11.10;99.90
24162;DHT22;12318;51.262;7.066;2023-03-31T15:41:13;11.10;99.90
24162;DHT22;12318;51.262;7.066;2023-03-31T15:43:43;11.00;99.90
24162;DHT22;12318;51.262;7.066;2023-03-31T15:46:15;11.00;99.90
24162;DHT22;12318;51.262;7.066;2023-03-31T15:48:54;11.00;99.90
24162;DHT22;12318;51.262;7.066;2023-03-31T15:51:33;11.00;99.90
24162;DHT22;12318;51.262;7.066;2023-03-31T15:54:00;11.00;99.90
24162;DHT22;12318;51.262;7.066;2023-03-31T15:56:43;10.90;99.90
24162;DHT22;12318;51.262;7.066;2023-03-31T15:59:30;10.80;99.90
24162;DHT22;12318;51.262;7.066;2023-03-31T16:01:56;11.00;99.90
24162;DHT22;12318;51.262;7.066;2023-03-31T16:04:31;11.10;99.90
24162;DHT22;12318;51.262;7.066;2023-03-31T16:07:19;11.10;99.90
24162;DHT22;12318;51.262;7.066;2023-03-31T16:12:57;11.00;99.90
24162;DHT22;12318;51.262;7.066;2023-03-31T16:15:35;11.00;99.90
24162;DHT22;12318;51.262;7.066;2023-03-31T16:18:09;11.00;99.90
24162;DHT22;12318;51.262;7.066;2023-03-31T16:20:40;10.90;99.90
24162;DHT22;12318;51.262;7.066;2023-03-31T16:23:15;10.90;99.90
24162;DHT22;12318;51.262;7.066;2023-03-31T16:25:43;11.00;99.90
24162;DHT22;12318;51.262;7.066;2023-03-31T16:28:16;10.90;99.90
24162;DHT22;12318;51.262;7.066;2023-03-31T16:30:44;10.90;99.90
24162;DHT22;12318;51.262;7.066;2023-03-31T16:33:21;10.80;99.90
24162;DHT22;12318;51.262;7.066;2023-03-31T16:35:52;11.00;99.90
24162;DHT22;12318;51.262;7.066;2023-03-31T16:38:21;10.90;99.90
24162;DHT22;12318;51.262;7.066;2023-03-31T16:40:49;10.90;99.90
24162;DHT22;12318;51.262;7.066;2023-03-31T16:43:18;11.00;99.90
24162;DHT22;12318;51.262;7.066;2023-03-31T16:45:46;11.00;99.90
24162;DHT22;12318;51.262;7.066;2023-03-31T16:48:14;10.90;99.90
24162;DHT22;12318;51.262;7.066;2023-03-31T16:50:41;11.00;99.90
24162;DHT22;12318;51.262;7.066;2023-03-31T16:53:07;11.00;99.90
24162;DHT22;12318;51.262;7.066;2023-03-31T16:55:33;11.00;99.90
24162;DHT22;12318;51.262;7.066;2023-03-31T16:57:59;10.90;99.90
24162;DHT22;12318;51.262;7.066;2023-03-31T17:00:29;10.80;99.90
24162;DHT22;12318;51.262;7.066;2023-03-31T17:02:55;10.80;99.90
24162;DHT22;12318;51.262;7.066;2023-03-31T17:05:22;10.90;99.90
24162;DHT22;12318;51.262;7.066;2023-03-31T17:07:47;11.00;99.90
24162;DHT22;12318;51.262;7.066;2023-03-31T17:10:13;10.80;99.90
24162;DHT22;12318;51.262;7.066;2023-03-31T17:12:40;10.80;99.90
24162;DHT22;12318;51.262;7.066;2023-03-31T17:15:10;10.80;99.90
24162;DHT22;12318;51.262;7.066;2023-03-31T17:17:36;10.90;99.90
24162;DHT22;12318;51.262;7.066;2023-03-31T17:20:05;10.80;99.90
24162;DHT22;12318;51.262;7.066;2023-03-31T17:22:32;10.80;99.90
24162;DHT22;12318;51.262;7.066;2023-03-31T17:24:58;10.80;99.90
24162;DHT22;12318;51.262;7.066;2023-03-31T17:27:25;10.70;99.90
24162;DHT22;12318;51.262;7.066;2023-03-31T17:29:52;10.80;99.90
24162;DHT22;12318;51.262;7.066;2023-03-31T17:32:18;10.80;99.90
24162;DHT22;12318;51.262;7.066;2023-03-31T17:34:44;10.80;99.90
24162;DHT22;12318;51.262;7.066;2023-03-31T17:37:12;10.80;99.90
24162;DHT22;12318;51.262;7.066;2023-03-31T17:39:38;10.80;99.90
24162;DHT22;12318;51.262;7.066;2023-03-31T17:42:04;10.90;99.90
24162;DHT22;12318;51.262;7.066;2023-03-31T17:44:30;10.80;99.90
24162;DHT22;12318;51.262;7.066;2023-03-31T17:46:56;10.80;99.90
24162;DHT22;12318;51.262;7.066;2023-03-31T17:49:22;10.70;99.90
24162;DHT22;12318;51.262;7.066;2023-03-31T17:51:49;10.70;99.90
24162;DHT22;12318;51.262;7.066;2023-03-31T17:54:15;10.60;99.90
24162;DHT22;12318;51.262;7.066;2023-03-31T17:56:41;10.70;99.90
24162;DHT22;12318;51.262;7.066;2023-03-31T17:59:07;10.70;99.90
24162;DHT22;12318;51.262;7.066;2023-03-31T18:01:35;10.60;99.90
24162;DHT22;12318;51.262;7.066;2023-03-31T18:04:01;10.60;99.90
24162;DHT22;12318;51.262;7.066;2023-03-31T18:06:26;10.60;99.90
24162;DHT22;12318;51.262;7.066;2023-03-31T18:08:52;10.50;99.90
24162;DHT22;12318;51.262;7.066;2023-03-31T18:11:20;10.50;99.90
24162;DHT22;12318;51.262;7.066;2023-03-31T18:13:46;10.40;99.90
24162;DHT22;12318;51.262;7.066;2023-03-31T18:16:12;10.50;99.90
24162;DHT22;12318;51.262;7.066;2023-03-31T18:18:38;10.50;99.90
24162;DHT22;12318;51.262;7.066;2023-03-31T18:21:06;10.40;99.90
24162;DHT22;12318;51.262;7.066;2023-03-31T18:23:33;10.40;99.90
24162;DHT22;12318;51.262;7.066;2023-03-31T18:26:00;10.30;99.90
24162;DHT22;12318;51.262;7.066;2023-03-31T18:28:26;10.30;99.90
24162;DHT22;12318;51.262;7.066;2023-03-31T18:30:51;10.40;99.90
24162;DHT22;12318;51.262;7.066;2023-03-31T18:33:18;10.40;99.90
24162;DHT22;12318;51.262;7.066;2023-03-31T18:35:44;10.40;99.90
24162;DHT22;12318;51.262;7.066;2023-03-31T18:38:11;10.40;99.90
24162;DHT22;12318;51.262;7.066;2023-03-31T18:40:37;10.40;99.90
24162;DHT22;12318;51.262;7.066;2023-03-31T18:43:04;10.40;99.90
24162;DHT22;12318;51.262;7.066;2023-03-31T18:45:30;10.30;99.90